| time (UTC) | temp C | wind direction | speed KPH | gust KPH | rain 1hr cm | rain 24hr cm | rain mn cm | humidity % | barometer mb |
| 20260508092516 | 13 | 315 | 14.5 | 16.1 | 0.00 | 0.00 | 0.00 | 62 | 1013.4 |
| 20260508091536 | 13 | 315 | 16.1 | 17.7 | 0.00 | 0.00 | 0.00 | 65 | 1013.4 |
| 20260508090516 | 13 | 338 | 16.1 | 17.7 | 0.00 | 0.00 | 0.00 | 63 | 1013.3 |
| 20260508085516 | 13 | 338 | 17.7 | 20.9 | 0.00 | 0.00 | 0.00 | 63 | 1013.2 |
| 20260508084516 | 13 | 338 | 20.9 | 24.1 | 0.00 | 0.00 | 0.00 | 65 | 1013.1 |
| 20260508083515 | 13 | 315 | 19.3 | 20.9 | 0.00 | 0.03 | 0.00 | 70 | 1013.0 |
| 20260508082516 | 13 | 315 | 17.7 | 20.9 | 0.00 | 0.03 | 0.00 | 73 | 1012.9 |
| 20260508081516 | 13 | 315 | 12.9 | 17.7 | 0.00 | 0.03 | 0.00 | 76 | 1012.9 |
| 20260508080516 | 13 | 315 | 17.7 | 20.9 | 0.00 | 0.03 | 0.00 | 73 | 1012.7 |
| 20260508075516 | 12 | 293 | 12.9 | 19.3 | 0.00 | 0.03 | 0.00 | 76 | 1012.5 |
| 20260508074515 | 13 | 315 | 16.1 | 19.3 | 0.00 | 0.03 | 0.00 | 75 | 1012.4 |
| 20260508073536 | 13 | 293 | 14.5 | 17.7 | 0.00 | 0.03 | 0.00 | 75 | 1012.2 |
| 20260508072516 | 13 | 293 | 16.1 | 19.3 | 0.00 | 0.03 | 0.00 | 77 | 1012.1 |
| 20260508071516 | 13 | 293 | 17.7 | 20.9 | 0.00 | 0.03 | 0.00 | 77 | 1011.9 |
| 20260508070515 | 13 | 270 | 16.1 | 24.1 | 0.00 | 0.03 | 0.00 | 77 | 1011.7 |
| 20260508065515 | 12 | 270 | 9.7 | 17.7 | 0.00 | 0.03 | 0.00 | 76 | 1011.5 |
| 20260508064516 | 12 | 293 | 14.5 | 17.7 | 0.00 | 0.03 | 0.00 | 78 | 1011.4 |
| 20260508063516 | 12 | 270 | 4.8 | 6.4 | 0.00 | 0.03 | 0.00 | 80 | 1011.2 |
| 20260508062536 | 12 | 270 | 9.7 | 12.9 | 0.00 | 0.03 | 0.00 | 84 | 1011.3 |
| 20260508061515 | 12 | 270 | 12.9 | 17.7 | 0.00 | 0.03 | 0.00 | 85 | 1011.2 |
| 20260508060515 | 12 | 270 | 6.4 | 12.9 | 0.00 | 0.03 | 0.00 | 85 | 1011.2 |
| 20260508055515 | 12 | 270 | 9.7 | 14.5 | 0.00 | 0.03 | 0.00 | 86 | 1011.1 |
| 20260508054515 | 12 | 270 | 4.8 | 9.7 | 0.00 | 0.03 | 0.00 | 86 | 1011.0 |
| 20260508053515 | 12 | 248 | 11.3 | 19.3 | 0.00 | 0.08 | 0.00 | 86 | 1011.0 |
| 20260508052535 | 12 | 270 | 6.4 | 14.5 | 0.00 | 0.18 | 0.00 | 85 | 1011.0 |
| 20260508051515 | 12 | 225 | 6.4 | 17.7 | 0.00 | 0.25 | 0.00 | 85 | 1011.0 |
| 20260508050518 | 12 | 248 | 6.4 | 9.7 | 0.00 | 0.30 | 0.00 | 85 | 1010.8 |
| 20260508045518 | 12 | 248 | 9.7 | 12.9 | 0.00 | 0.33 | 0.00 | 84 | 1010.8 |
| 20260508044556 | 12 | 248 | 9.7 | 17.7 | 0.00 | 0.38 | 0.00 | 84 | 1010.7 |
| 20260508043515 | 12 | 270 | 8.0 | 16.1 | 0.00 | 0.38 | 0.00 | 83 | 1010.7 |
| 20260508042515 | 12 | 248 | 8.0 | 12.9 | 0.00 | 0.38 | 0.00 | 83 | 1010.6 |
| 20260508041535 | 12 | 248 | 8.0 | 12.9 | 0.00 | 0.38 | 0.00 | 82 | 1010.5 |
| 20260508040556 | 13 | 270 | 1.6 | 4.8 | 0.00 | 0.38 | 0.00 | 81 | 1010.4 |
| 20260508035516 | 13 | 270 | 4.8 | 8.0 | 0.00 | 0.38 | 0.38 | 81 | 1010.4 |
| 20260508034516 | 12 | 248 | 4.8 | 9.7 | 0.00 | 0.38 | 0.38 | 82 | 1010.4 |
| 20260508033516 | 12 | 293 | 3.2 | 4.8 | 0.00 | 0.38 | 0.38 | 82 | 1010.4 |
| 20260508032516 | 12 | 248 | 4.8 | 8.0 | 0.00 | 0.38 | 0.38 | 82 | 1010.4 |
| 20260508031517 | 12 | 248 | 1.6 | 3.2 | 0.00 | 0.38 | 0.38 | 82 | 1010.4 |
| 20260508030516 | 12 | 270 | 1.6 | 4.8 | 0.00 | 0.38 | 0.38 | 81 | 1010.4 |
| 20260508025516 | 12 | 0.0 | 1.6 | 0.00 | 0.38 | 0.38 | 81 | 1010.5 | |
| 20260508024516 | 12 | 0.0 | 1.6 | 0.00 | 0.38 | 0.38 | 80 | 1010.4 | |
| 20260508023516 | 12 | 0.0 | 0.0 | 0.00 | 0.38 | 0.38 | 79 | 1010.5 | |
| 20260508022516 | 12 | 248 | 1.6 | 3.2 | 0.00 | 0.38 | 0.38 | 78 | 1010.5 |
| 20260508021517 | 12 | 270 | 3.2 | 6.4 | 0.00 | 0.38 | 0.38 | 77 | 1010.5 |
| 20260508020516 | 12 | 0.0 | 3.2 | 0.00 | 0.38 | 0.38 | 77 | 1010.5 | |
| 20260508015536 | 13 | 270 | 3.2 | 6.4 | 0.00 | 0.38 | 0.38 | 76 | 1010.3 |
| 20260508014516 | 13 | 248 | 3.2 | 6.4 | 0.00 | 0.38 | 0.38 | 76 | 1010.3 |
| 20260508013516 | 13 | 248 | 1.6 | 6.4 | 0.00 | 0.38 | 0.38 | 75 | 1010.2 |
| 20260508012516 | 13 | 0.0 | 1.6 | 0.00 | 0.38 | 0.38 | 74 | 1010.1 | |
| 20260508011516 | 13 | 180 | 1.6 | 4.8 | 0.00 | 0.38 | 0.38 | 73 | 1009.9 |
| 20260508010536 | 13 | 180 | 1.6 | 11.3 | 0.00 | 0.38 | 0.38 | 73 | 1009.6 |
| 20260508005516 | 13 | 225 | 1.6 | 3.2 | 0.00 | 0.38 | 0.38 | 72 | 1009.6 |
| 20260508004516 | 13 | 203 | 1.6 | 4.8 | 0.00 | 0.38 | 0.38 | 72 | 1009.4 |
| 20260508003536 | 13 | 0.0 | 3.2 | 0.00 | 0.38 | 0.38 | 72 | 1009.4 | |
| 20260508002516 | 13 | 0.0 | 0.0 | 0.00 | 0.38 | 0.38 | 71 | 1009.2 | |
| 20260508001536 | 13 | 0.0 | 3.2 | 0.00 | 0.38 | 0.38 | 69 | 1009.1 | |
| 20260508000516 | 14 | 0.0 | 0.0 | 0.00 | 0.38 | 0.38 | 68 | 1009.0 | |
| 20260507235516 | 14 | 0.0 | 0.0 | 0.00 | 0.38 | 0.38 | 67 | 1008.9 | |
| 20260507234516 | 15 | 0.0 | 0.0 | 0.00 | 0.38 | 0.38 | 65 | 1008.8 | |
| 20260507233516 | 15 | 203 | 1.6 | 8.0 | 0.00 | 0.38 | 0.38 | 63 | 1008.7 |
| 20260507232516 | 15 | 0.0 | 1.6 | 0.00 | 0.38 | 0.38 | 63 | 1008.6 | |
| 20260507231516 | 15 | 180 | 1.6 | 3.2 | 0.00 | 0.38 | 0.38 | 63 | 1008.6 |
| 20260507230516 | 15 | 225 | 1.6 | 4.8 | 0.00 | 0.38 | 0.38 | 63 | 1008.6 |
| 20260507225516 | 15 | 225 | 1.6 | 6.4 | 0.00 | 0.38 | 0.38 | 63 | 1008.5 |
| 20260507224515 | 15 | 158 | 4.8 | 11.3 | 0.00 | 0.38 | 0.38 | 63 | 1008.4 |
| 20260507223518 | 16 | 180 | 1.6 | 3.2 | 0.00 | 0.38 | 0.38 | 63 | 1008.4 |
| 20260507222516 | 16 | 158 | 1.6 | 3.2 | 0.00 | 0.38 | 0.38 | 61 | 1008.3 |
| 20260507221516 | 16 | 180 | 3.2 | 8.0 | 0.00 | 0.38 | 0.38 | 59 | 1008.3 |
| 20260507220515 | 16 | 135 | 1.6 | 6.4 | 0.00 | 0.38 | 0.38 | 59 | 1008.3 |
| 20260507215516 | 16 | 158 | 3.2 | 6.4 | 0.00 | 0.38 | 0.38 | 59 | 1008.4 |
| 20260507214516 | 16 | 135 | 1.6 | 6.4 | 0.00 | 0.38 | 0.38 | 58 | 1008.4 |
| 20260507213516 | 16 | 0.0 | 1.6 | 0.00 | 0.38 | 0.38 | 58 | 1008.5 | |
| 20260507212516 | 16 | 315 | 1.6 | 3.2 | 0.00 | 0.38 | 0.38 | 59 | 1008.5 |
| 20260507211515 | 16 | 0.0 | 0.0 | 0.00 | 0.38 | 0.38 | 59 | 1008.6 | |
| 20260507210516 | 16 | 135 | 6.4 | 8.0 | 0.00 | 0.38 | 0.38 | 57 | 1008.5 |
| 20260507205516 | 16 | 113 | 6.4 | 11.3 | 0.00 | 0.38 | 0.38 | 57 | 1008.7 |
| 20260507204516 | 16 | 180 | 1.6 | 8.0 | 0.00 | 0.38 | 0.38 | 60 | 1008.7 |
| 20260507203516 | 16 | 225 | 3.2 | 6.4 | 0.00 | 0.38 | 0.38 | 60 | 1008.6 |
| 20260507202536 | 16 | 225 | 4.8 | 8.0 | 0.00 | 0.38 | 0.38 | 61 | 1008.5 |
| 20260507201516 | 15 | 113 | 8.0 | 12.9 | 0.00 | 0.38 | 0.38 | 61 | 1008.5 |
| 20260507200515 | 15 | 113 | 9.7 | 11.3 | 0.00 | 0.38 | 0.38 | 62 | 1008.5 |
| 20260507195515 | 15 | 113 | 11.3 | 14.5 | 0.00 | 0.38 | 0.38 | 61 | 1008.5 |
| 20260507194515 | 15 | 90 | 11.3 | 12.9 | 0.00 | 0.38 | 0.38 | 65 | 1008.7 |
| 20260507193515 | 14 | 90 | 4.8 | 6.4 | 0.00 | 0.38 | 0.38 | 62 | 1009.1 |
| 20260507192515 | 14 | 113 | 8.0 | 12.9 | 0.00 | 0.38 | 0.38 | 60 | 1009.3 |
| 20260507191515 | 14 | 113 | 12.9 | 14.5 | 0.00 | 0.38 | 0.38 | 65 | 1008.8 |
| 20260507190516 | 14 | 90 | 11.3 | 14.5 | 0.00 | 0.38 | 0.38 | 63 | 1009.3 |
| 20260507185515 | 14 | 90 | 4.8 | 9.7 | 0.00 | 0.38 | 0.38 | 63 | 1009.6 |
| 20260507184515 | 14 | 90 | 8.0 | 11.3 | 0.00 | 0.38 | 0.38 | 63 | 1009.5 |
| 20260507183515 | 13 | 90 | 8.0 | 9.7 | 0.00 | 0.38 | 0.38 | 62 | 1009.8 |
| 20260507182518 | 13 | 90 | 3.2 | 4.8 | 0.00 | 0.38 | 0.38 | 61 | 1009.7 |
| 20260507181515 | 13 | 90 | 8.0 | 11.3 | 0.00 | 0.38 | 0.38 | 64 | 1009.8 |
| 20260507180515 | 13 | 45 | 6.4 | 9.7 | 0.00 | 0.38 | 0.38 | 65 | 1010.1 |
| 20260507175515 | 13 | 23 | 3.2 | 6.4 | 0.00 | 0.38 | 0.38 | 62 | 1010.3 |
| 20260507174515 | 13 | 23 | 4.8 | 6.4 | 0.00 | 0.38 | 0.38 | 62 | 1010.0 |
| 20260507173515 | 13 | 23 | 3.2 | 4.8 | 0.00 | 0.38 | 0.38 | 60 | 1010.6 |
| 20260507172515 | 13 | 23 | 1.6 | 3.2 | 0.00 | 0.38 | 0.38 | 62 | 1010.5 |
| 20260507171515 | 13 | 23 | 1.6 | 3.2 | 0.00 | 0.38 | 0.38 | 61 | 1010.6 |
| 20260507170515 | 13 | 23 | 3.2 | 4.8 | 0.00 | 0.38 | 0.38 | 61 | 1010.7 |
| 20260507165515 | 13 | 23 | 1.6 | 3.2 | 0.00 | 0.38 | 0.38 | 62 | 1010.9 |
| 20260507164515 | 13 | 23 | 3.2 | 4.8 | 0.00 | 0.38 | 0.38 | 63 | 1011.2 |
| 20260507163515 | 13 | 0 | 4.8 | 6.4 | 0.00 | 0.38 | 0.38 | 62 | 1011.2 |
| 20260507162515 | 13 | 23 | 4.8 | 6.4 | 0.00 | 0.38 | 0.38 | 62 | 1011.3 |
| 20260507161515 | 13 | 23 | 6.4 | 8.0 | 0.00 | 0.38 | 0.38 | 61 | 1011.4 |
| 20260507160535 | 13 | 23 | 8.0 | 8.0 | 0.00 | 0.38 | 0.38 | 63 | 1011.5 |
| 20260507155515 | 13 | 23 | 9.7 | 12.9 | 0.00 | 0.38 | 0.38 | 66 | 1011.6 |
| 20260507154515 | 13 | 0 | 8.0 | 11.3 | 0.00 | 0.41 | 0.38 | 62 | 1011.6 |
| 20260507153515 | 13 | 23 | 9.7 | 11.3 | 0.00 | 0.41 | 0.38 | 62 | 1011.5 |
| 20260507152515 | 13 | 0 | 9.7 | 12.9 | 0.00 | 0.41 | 0.38 | 59 | 1011.5 |
| 20260507151515 | 13 | 338 | 9.7 | 12.9 | 0.00 | 0.41 | 0.38 | 58 | 1011.7 |
| 20260507150515 | 13 | 338 | 9.7 | 12.9 | 0.00 | 0.43 | 0.38 | 64 | 1012.0 |
| 20260507145515 | 13 | 338 | 12.9 | 14.5 | 0.00 | 0.51 | 0.38 | 61 | 1012.0 |
| 20260507144517 | 13 | 315 | 12.9 | 17.7 | 0.00 | 0.58 | 0.38 | 62 | 1012.1 |
| 20260507143517 | 13 | 338 | 14.5 | 19.3 | 0.00 | 0.61 | 0.38 | 57 | 1012.1 |
| 20260507142537 | 13 | 338 | 14.5 | 16.1 | 0.00 | 0.61 | 0.38 | 58 | 1012.1 |
| 20260507141540 | 13 | 338 | 16.1 | 19.3 | 0.00 | 0.64 | 0.38 | 60 | 1012.2 |
| 20260507140517 | 13 | 338 | 19.3 | 20.9 | 0.00 | 0.66 | 0.38 | 56 | 1012.3 |
| 20260507135517 | 13 | 338 | 11.3 | 17.7 | 0.00 | 0.66 | 0.38 | 62 | 1012.4 |
| 20260507134517 | 13 | 315 | 20.9 | 24.1 | 0.00 | 0.66 | 0.38 | 62 | 1012.3 |
| 20260507133516 | 13 | 315 | 17.7 | 20.9 | 0.00 | 0.66 | 0.38 | 63 | 1012.2 |
| 20260507132517 | 13 | 338 | 20.9 | 25.7 | 0.00 | 0.66 | 0.38 | 63 | 1012.0 |
| 20260507131517 | 13 | 315 | 17.7 | 20.9 | 0.00 | 0.66 | 0.38 | 62 | 1012.2 |
| 20260507130517 | 13 | 338 | 19.3 | 22.5 | 0.00 | 0.66 | 0.38 | 63 | 1012.4 |
| 20260507125515 | 13 | 315 | 17.7 | 22.5 | 0.00 | 0.66 | 0.38 | 63 | 1012.3 |
| 20260507124520 | 13 | 338 | 16.1 | 17.7 | 0.00 | 0.66 | 0.38 | 62 | 1012.4 |
| 20260507123516 | 14 | 338 | 16.1 | 19.3 | 0.00 | 0.66 | 0.38 | 65 | 1012.1 |
| 20260507122537 | 14 | 338 | 16.1 | 19.3 | 0.00 | 0.66 | 0.38 | 66 | 1012.1 |
| 20260507121557 | 14 | 315 | 12.9 | 14.5 | 0.00 | 0.66 | 0.38 | 66 | 1012.1 |
| 20260507120517 | 14 | 338 | 11.3 | 14.5 | 0.00 | 0.66 | 0.38 | 66 | 1011.9 |
| 20260507115516 | 13 | 338 | 14.5 | 14.5 | 0.00 | 0.66 | 0.38 | 67 | 1011.9 |
| 20260507114517 | 14 | 338 | 14.5 | 16.1 | 0.00 | 0.66 | 0.38 | 71 | 1011.8 |
| 20260507113537 | 14 | 338 | 14.5 | 17.7 | 0.00 | 0.66 | 0.38 | 72 | 1011.8 |
| 20260507112516 | 14 | 338 | 17.7 | 20.9 | 0.00 | 0.66 | 0.38 | 75 | 1011.8 |
| 20260507111516 | 13 | 338 | 16.1 | 17.7 | 0.00 | 0.66 | 0.38 | 78 | 1011.8 |
| 20260507110517 | 13 | 315 | 16.1 | 19.3 | 0.00 | 0.66 | 0.38 | 82 | 1011.7 |
| 20260507105517 | 13 | 338 | 12.9 | 14.5 | 0.00 | 0.66 | 0.38 | 82 | 1011.4 |
| 20260507104516 | 13 | 338 | 9.7 | 12.9 | 0.00 | 0.66 | 0.38 | 81 | 1011.5 |
| 20260507103516 | 13 | 338 | 11.3 | 14.5 | 0.00 | 0.66 | 0.38 | 80 | 1011.3 |
| 20260507102516 | 13 | 338 | 11.3 | 14.5 | 0.00 | 0.66 | 0.38 | 81 | 1011.1 |
| 20260507101517 | 13 | 338 | 11.3 | 12.9 | 0.00 | 0.66 | 0.38 | 83 | 1011.1 |
| 20260507100516 | 13 | 338 | 14.5 | 16.1 | 0.00 | 0.66 | 0.38 | 84 | 1011.1 |
| 20260507095516 | 13 | 315 | 12.9 | 14.5 | 0.00 | 0.66 | 0.38 | 85 | 1011.2 |
| 20260507094516 | 13 | 338 | 11.3 | 14.5 | 0.00 | 0.66 | 0.38 | 85 | 1011.1 |
| 20260507093536 | 13 | 338 | 11.3 | 14.5 | 0.03 | 0.66 | 0.38 | 86 | 1011.1 |